Main page
METAR-TAF:

METAR-TAF

Airports :

Iqaluit Airport

Iqaluit, Nunavut, Canada

latitude: 63-45N, longitude: 068-33W, elevation: 34 m

Current weather observation

The report was made 48 minutes ago, at 21:00 UTC
Wind 3 kt from the Southeast
Temperature 6°C
Humidity 70%
Pressure 1006 hPa
Visibility: 48.3 km
Scattered clouds at a height of 23000 ft

METAR: CYFB 172100Z 13003KT 30SM SCT230 06/01 A2971 RMK CI4 SLP066

Time: 17:48 (21:48 UTC)

Forecast

The report was made 4 hours and 10 minutes ago, at 17:38 UTC
Forecast valid from 17 at 18 UTC to 18 at 18 UTC
Wind 3 kt from variable directions
Visibility: 10 km
Scattered clouds at a height of 23000 ft

TAF: CYFB 171738Z 1718/1818 VRB03KT P6SM SCT230 RMK NXT FCST BY 180000Z

Weather observations and forecasts of more than 4000 airports (METAR and TAF reports).

The available stations are represented by yellow and red dots on the map.

Hover mouse over dot to see the name of the station.

Then click to see weather observations and forecasts.

To change the map : click on the green buttons with a black cross to zoom in, on the green button with a dash to zoom out, or on the green arrows for adjacent maps.


METAR-TAF: